.
WxDataArchive / Data Records for 2012-11-09
2012-11-08 November 2012 2012-11-10

Data Records for Friday, 09 November 2012

Time	Temp	Chill	HIndex	Humid	Dewpt	 Wind 	HiWind	WindDir	Rain 	Barom 
-----	----	-----	------	-----	-----	------	------	-------	-----	----- 
00:00	30.4	30.4	30.4	89	27.6	0	0	---	0.00	30.157 
00:05	30.3	30.3	30.3	89	27.5	0	0	---	0.00	30.157 
00:10	30.1	30.1	30.1	89	27.3	0	0	---	0.00	30.157 
00:15	30.1	30.1	30.1	89	27.3	0	0	---	0.00	30.161 
00:20	30.0	30.0	30.0	89	27.2	0	0	---	0.00	30.161 
00:25	29.8	29.8	29.8	89	27.0	0	0	---	0.00	30.161 
00:30	29.8	29.8	29.8	89	27.0	0	0	---	0.00	30.161 
00:35	29.8	29.8	29.8	89	27.0	0	0	---	0.00	30.161 
00:40	29.7	29.7	29.7	90	27.1	0	0	---	0.00	30.161 
00:45	29.7	29.7	29.7	90	27.1	0	0	---	0.00	30.163 
00:50	29.7	29.7	29.7	90	27.1	0	0	---	0.00	30.163 
00:55	29.7	29.7	29.7	90	27.1	0	0	---	0.00	30.163 
01:00	29.5	29.5	29.5	90	26.9	0	0	---	0.00	30.164 
01:05	29.5	29.5	29.5	90	26.9	0	0	---	0.00	30.164 
01:10	29.4	29.4	29.4	90	26.8	0	0	---	0.00	30.164 
01:15	29.4	29.4	29.4	90	26.8	0	0	---	0.00	30.162 
01:20	29.3	29.3	29.3	90	26.7	0	0	---	0.00	30.162 
01:25	29.3	29.3	29.3	90	26.7	0	0	---	0.00	30.162 
01:30	29.3	29.3	29.3	90	26.7	0	0	---	0.00	30.162 
01:35	29.1	29.1	29.1	90	26.5	0	0	---	0.00	30.162 
01:40	29.1	29.1	29.1	90	26.5	0	0	---	0.00	30.162 
01:45	29.1	29.1	29.1	90	26.5	0	0	---	0.00	30.161 
01:50	29.0	29.0	29.0	90	26.4	0	0	---	0.00	30.161 
01:55	28.8	28.8	28.8	90	26.2	0	0	---	0.00	30.161 
02:00	28.8	28.8	28.8	91	26.5	0	0	---	0.00	30.165 
02:05	29.0	29.0	29.0	91	26.7	0	0	---	0.00	30.165 
02:10	29.0	29.0	29.0	91	26.7	0	0	---	0.00	30.165 
02:15	29.0	29.0	29.0	91	26.7	0	0	---	0.00	30.168 
02:20	28.8	28.8	28.8	91	26.5	0	0	---	0.00	30.168 
02:25	28.8	28.8	28.8	91	26.5	0	0	---	0.00	30.168 
02:30	28.7	28.7	28.7	91	26.4	0	0	---	0.00	30.175 
02:35	28.7	28.7	28.7	91	26.4	0	0	---	0.00	30.175 
02:40	28.7	28.7	28.7	91	26.4	0	0	---	0.00	30.175 
02:45	28.7	28.7	28.7	91	26.4	0	0	---	0.00	30.176 
02:50	28.5	28.5	28.5	91	26.2	0	0	---	0.00	30.176 
02:55	28.4	28.4	28.4	91	26.1	0	0	---	0.00	30.176 
03:00	28.2	28.2	28.2	91	25.9	0	0	---	0.00	30.176 
03:05	28.1	28.1	28.1	91	25.8	0	0	---	0.00	30.176 
03:10	28.1	28.1	28.1	91	25.8	0	0	---	0.00	30.176 
03:15	28.1	28.1	28.1	91	25.8	0	0	---	0.00	30.181 
03:20	27.9	27.9	27.9	91	25.6	0	0	---	0.00	30.181 
03:25	28.1	28.1	28.1	91	25.8	0	0	---	0.00	30.181 
03:30	28.1	28.1	28.1	91	25.8	0	0	---	0.00	30.183 
03:35	28.2	28.2	28.2	92	26.2	0	0	---	0.00	30.183 
03:40	28.2	28.2	28.2	92	26.2	0	0	---	0.00	30.183 
03:45	28.2	28.2	28.2	91	25.9	0	0	---	0.00	30.180 
03:50	28.1	28.1	28.1	92	26.1	0	0	---	0.00	30.180 
03:55	28.1	28.1	28.1	92	26.1	0	0	---	0.00	30.180 
04:00	27.9	27.9	27.9	92	25.9	0	0	---	0.00	30.177 
04:05	27.9	27.9	27.9	92	25.9	0	0	---	0.00	30.177 
04:10	27.9	27.9	27.9	92	25.9	0	0	---	0.00	30.177 
04:15	27.8	27.8	27.8	92	25.8	0	0	---	0.00	30.185 
04:20	27.8	27.8	27.8	92	25.8	0	0	---	0.00	30.185 
04:25	27.8	27.8	27.8	92	25.8	0	0	---	0.00	30.185 
04:30	27.8	27.8	27.8	92	25.8	0	0	---	0.00	30.188 
04:35	27.8	27.8	27.8	92	25.8	0	0	---	0.00	30.188 
04:40	27.9	27.9	27.9	92	25.9	0	0	---	0.00	30.188 
04:45	27.8	27.8	27.8	92	25.8	0	0	---	0.00	30.193 
04:50	27.8	27.8	27.8	92	25.8	0	0	---	0.00	30.193 
04:55	27.8	27.8	27.8	92	25.8	0	0	---	0.00	30.193 
05:00	27.6	27.6	27.6	92	25.6	0	0	---	0.00	30.198 
05:05	27.5	27.5	27.5	92	25.5	0	0	---	0.00	30.198 
05:10	27.5	27.5	27.5	92	25.5	0	0	---	0.00	30.198 
05:15	27.5	27.5	27.5	92	25.5	0	0	---	0.00	30.203 
05:20	27.5	27.5	27.5	92	25.5	0	0	---	0.00	30.203 
05:25	27.5	27.5	27.5	92	25.5	0	0	---	0.00	30.203 
05:30	27.5	27.5	27.5	92	25.5	0	0	---	0.00	30.202 
05:35	27.3	27.3	27.3	92	25.3	0	0	---	0.00	30.202 
05:40	27.3	27.3	27.3	92	25.3	0	0	---	0.00	30.202 
05:45	27.5	27.5	27.5	92	25.5	0	0	---	0.00	30.201 
05:50	27.6	27.6	27.6	92	25.6	0	0	---	0.00	30.201 
05:55	27.6	27.6	27.6	92	25.6	0	0	---	0.00	30.201 
06:00	27.6	27.6	27.6	92	25.6	0	0	---	0.00	30.198 
06:05	27.6	27.6	27.6	92	25.6	0	0	---	0.00	30.198 
06:10	27.6	27.6	27.6	92	25.6	0	0	---	0.00	30.198 
06:15	27.6	27.6	27.6	92	25.6	0	0	---	0.00	30.202 
06:20	27.5	27.5	27.5	92	25.5	0	0	---	0.00	30.202 
06:25	27.5	27.5	27.5	92	25.5	0	0	---	0.00	30.202 
06:30	27.3	27.3	27.3	92	25.3	0	0	---	0.00	30.200 
06:35	27.3	27.3	27.3	92	25.3	0	0	---	0.00	30.200 
06:40	27.2	27.2	27.2	92	25.2	0	0	---	0.00	30.200 
06:45	27.3	27.3	27.3	92	25.3	0	0	---	0.00	30.199 
06:50	27.3	27.3	27.3	92	25.3	0	0	---	0.00	30.199 
06:55	27.3	27.3	27.3	92	25.3	0	0	---	0.00	30.199 
07:00	27.5	27.5	27.5	92	25.5	0	0	---	0.00	30.202 
07:05	27.5	27.5	27.5	92	25.5	0	0	---	0.00	30.202 
07:10	27.5	27.5	27.5	93	25.7	0	0	---	0.00	30.202 
07:15	27.5	27.5	27.5	93	25.7	0	0	---	0.00	30.207 
07:20	27.5	27.5	27.5	92	25.5	0	0	---	0.00	30.207 
07:25	27.3	27.3	27.3	92	25.3	0	0	---	0.00	30.207 
07:30	27.3	27.3	27.3	92	25.3	0	0	---	0.00	30.209 
07:35	27.3	27.3	27.3	92	25.3	0	0	---	0.00	30.209 
07:40	27.3	27.3	27.3	93	25.5	0	0	---	0.00	30.209 
07:45	27.3	27.3	27.3	93	25.5	0	0	---	0.00	30.209 
07:50	27.6	27.6	27.6	93	25.8	0	0	---	0.00	30.209 
07:55	27.8	27.8	27.8	93	26.0	0	0	---	0.00	30.209 
08:00	28.2	28.2	28.2	93	26.4	0	0	---	0.00	30.207 
08:05	28.8	28.8	28.8	94	27.3	0	0	---	0.00	30.207 
08:10	29.4	29.4	29.4	94	27.9	0	0	---	0.00	30.207 
08:15	30.1	30.1	30.1	94	28.6	0	0	---	0.00	30.208 
08:20	31.0	31.0	31.0	94	29.5	0	0	---	0.00	30.208 
08:25	31.6	31.6	31.6	94	30.1	0	0	---	0.00	30.208 
08:30	32.2	32.2	32.2	94	30.7	0	0	---	0.00	30.209 
08:35	32.8	32.8	32.8	95	31.5	0	0	---	0.00	30.209 
08:40	33.4	33.4	33.4	95	32.1	0	0	---	0.00	30.209 
08:45	34.1	34.1	34.1	94	32.6	0	0	---	0.00	30.207 
08:50	34.4	34.4	34.4	94	32.9	0	0	---	0.00	30.207 
08:55	34.9	34.9	34.9	94	33.4	0	0	---	0.00	30.207 
09:00	35.5	35.5	35.5	94	33.9	0	0	---	0.00	30.205 
09:05	36.0	36.0	36.0	94	34.4	0	0	---	0.00	30.205 
09:10	36.6	36.6	36.6	94	35.0	0	1	248	0.00	30.205 
09:15	37.5	37.5	37.5	93	35.7	0	2	248	0.00	30.205 
09:20	38.2	38.2	38.2	92	36.1	0	1	248	0.00	30.205 
09:25	39.1	39.1	39.1	91	36.7	0	2	248	0.00	30.205 
09:30	39.6	39.6	39.6	89	36.6	0	2	248	0.00	30.202 
09:35	40.2	40.2	40.2	89	37.2	0	2	248	0.00	30.202 
09:40	40.8	40.8	40.8	88	37.5	0	2	248	0.00	30.202 
09:45	41.3	41.3	41.3	88	38.0	0	3	248	0.00	30.203 
09:50	42.1	42.1	42.1	88	38.8	0	1	248	0.00	30.203 
09:55	42.5	42.5	42.5	86	38.6	0	2	248	0.00	30.203 
10:00	42.9	42.9	42.9	84	38.4	0	3	248	0.00	30.199 
10:05	43.3	43.3	43.3	83	38.5	0	3	248	0.00	30.199 
10:10	43.9	43.9	43.9	81	38.5	0	1	248	0.00	30.199 
10:15	44.3	44.3	44.3	80	38.5	0	2	248	0.00	30.199 
10:20	44.8	44.8	44.8	79	38.7	0	2	248	0.00	30.199 
10:25	45.2	45.2	45.2	77	38.4	1	4	248	0.00	30.199 
10:30	45.5	45.5	45.5	76	38.4	0	2	248	0.00	30.190 
10:35	46.1	46.1	46.1	75	38.6	1	4	90	0.00	30.190 
10:40	46.5	46.5	46.5	74	38.7	0	3	90	0.00	30.190 
10:45	47.0	47.0	47.0	73	38.8	1	4	90	0.00	30.187 
10:50	47.4	47.4	47.4	73	39.2	1	4	90	0.00	30.187 
10:55	47.9	47.9	47.9	72	39.3	1	3	270	0.00	30.187 
11:00	48.5	48.5	48.5	71	39.5	1	2	270	0.00	30.183 
11:05	48.9	48.9	48.9	69	39.2	1	4	68	0.00	30.183 
11:10	49.4	49.4	49.4	69	39.7	1	4	68	0.00	30.183 
11:15	49.6	49.6	49.6	69	39.9	1	5	112	0.00	30.178 
11:20	50.1	50.1	50.1	67	39.6	1	4	90	0.00	30.178 
11:25	50.4	50.4	50.4	66	39.5	2	4	90	0.00	30.178 
11:30	50.8	50.8	50.8	67	40.2	1	5	90	0.00	30.165 
11:35	51.3	51.3	51.3	65	39.9	1	5	68	0.00	30.165 
11:40	51.4	51.4	51.4	64	39.6	2	5	90	0.00	30.165 
11:45	51.6	51.6	51.6	64	39.8	1	7	68	0.00	30.149 
11:50	51.9	51.9	51.9	63	39.7	1	4	270	0.00	30.149 
11:55	52.3	52.3	52.3	64	40.5	1	3	248	0.00	30.149 
12:00	52.8	52.8	52.8	62	40.1	1	5	90	0.00	30.146 
12:05	53.1	53.1	53.1	63	40.8	1	3	90	0.00	30.146 
12:10	53.3	53.3	53.3	62	40.6	1	3	90	0.00	30.146 
12:15	53.6	53.6	53.6	61	40.5	1	2	248	0.00	30.141 
12:20	53.8	53.8	53.8	61	40.7	2	5	248	0.00	30.141 
12:25	53.9	53.9	53.9	60	40.3	1	4	45	0.00	30.141 
12:30	53.9	53.9	53.9	61	40.8	1	4	90	0.00	30.144 
12:35	54.2	54.2	54.2	60	40.6	1	4	90	0.00	30.144 
12:40	54.4	54.4	54.4	59	40.4	1	4	248	0.00	30.144 
12:45	54.7	54.7	54.7	60	41.1	1	4	315	0.00	30.138 
12:50	54.8	54.8	54.8	59	40.7	1	4	248	0.00	30.138 
12:55	55.0	55.0	55.0	60	41.4	1	4	68	0.00	30.138 
13:00	55.1	55.1	55.1	57	40.1	1	5	248	0.00	30.128 
13:05	55.3	55.3	55.3	58	40.8	1	6	248	0.00	30.128 
13:10	55.4	55.4	55.4	58	40.9	1	3	248	0.00	30.128 
13:15	55.7	55.7	55.7	58	41.2	1	6	90	0.00	30.114 
13:20	55.9	55.9	55.9	59	41.8	1	3	68	0.00	30.114 
13:25	56.0	56.0	56.0	57	41.0	1	3	68	0.00	30.114 
13:30	56.2	56.2	56.2	56	40.7	2	5	90	0.00	30.110 
13:35	56.3	56.3	56.3	56	40.8	1	4	112	0.00	30.110 
13:40	56.5	56.5	56.5	55	40.5	1	6	112	0.00	30.110 
13:45	56.2	56.2	56.2	55	40.2	3	7	112	0.00	30.104 
13:50	56.3	56.3	56.3	56	40.8	0	2	248	0.00	30.104 
13:55	56.5	56.5	56.5	56	41.0	2	7	90	0.00	30.104 
14:00	56.5	56.5	56.5	54	40.1	2	7	90	0.00	30.094 
14:05	56.6	56.6	56.6	55	40.6	2	5	90	0.00	30.094 
14:10	56.7	56.7	56.7	53	39.8	2	4	68	0.00	30.094 
14:15	56.9	56.9	56.9	54	40.4	1	4	112	0.00	30.092 
14:20	57.2	57.2	57.2	53	40.2	2	5	112	0.00	30.092 
14:25	57.3	57.3	57.3	53	40.3	2	5	90	0.00	30.092 
14:30	57.3	57.3	57.3	50	38.8	2	7	90	0.00	30.083 
14:35	57.5	57.5	57.5	52	40.0	1	3	112	0.00	30.083 
14:40	57.5	57.5	57.5	52	40.0	2	5	90	0.00	30.083 
14:45	57.6	57.6	57.6	51	39.6	1	4	248	0.00	30.087 
14:50	58.0	58.0	58.0	51	40.0	1	3	112	0.00	30.087 
14:55	58.1	58.1	58.1	52	40.6	1	3	112	0.00	30.087 
15:00	58.1	58.1	58.1	51	40.1	2	5	90	0.00	30.083 
15:05	58.3	58.3	58.3	50	39.7	1	5	112	0.00	30.083 
15:10	58.3	58.3	58.3	50	39.7	1	5	292	0.00	30.083 
15:15	58.1	58.1	58.1	50	39.6	1	3	90	0.00	30.084 
15:20	57.6	57.6	57.6	51	39.6	1	3	90	0.00	30.084 
15:25	57.5	57.5	57.5	51	39.5	1	4	90	0.00	30.084 
15:30	57.5	57.5	57.5	51	39.5	1	5	90	0.00	30.084 
15:35	57.6	57.6	57.6	50	39.1	2	4	90	0.00	30.084 
15:40	57.6	57.6	57.6	51	39.6	1	4	90	0.00	30.084 
15:45	57.6	57.6	57.6	52	40.1	0	2	90	0.00	30.082 
15:50	57.8	57.8	57.8	52	40.3	1	4	90	0.00	30.082 
15:55	57.8	57.8	57.8	51	39.8	0	3	90	0.00	30.082 
16:00	58.0	58.0	58.0	50	39.5	1	4	90	0.00	30.081 
16:05	58.1	58.1	58.1	50	39.6	2	4	112	0.00	30.081 
16:10	58.3	58.3	58.3	50	39.7	1	2	112	0.00	30.081 
16:15	58.3	58.3	58.3	50	39.7	2	9	90	0.00	30.077 
16:20	58.1	58.1	58.1	50	39.6	1	4	90	0.00	30.077 
16:25	57.8	57.8	57.8	49	38.8	1	4	90	0.00	30.077 
16:30	57.8	57.8	57.8	50	39.3	1	3	90	0.00	30.068 
16:35	57.6	57.6	57.6	50	39.1	1	5	158	0.00	30.068 
16:40	57.6	57.6	57.6	50	39.1	1	4	68	0.00	30.068 
16:45	57.8	57.8	57.8	49	38.8	2	5	90	0.00	30.067 
16:50	57.8	57.8	57.8	50	39.3	1	4	90	0.00	30.067 
16:55	57.8	57.8	57.8	50	39.3	0	3	90	0.00	30.067 
17:00	57.6	57.6	57.6	50	39.1	0	2	90	0.00	30.067 
17:05	57.5	57.5	57.5	50	39.0	0	2	90	0.00	30.067 
17:10	57.3	57.3	57.3	50	38.8	1	4	90	0.00	30.067 
17:15	57.2	57.2	57.2	51	39.2	0	2	90	0.00	30.070 
17:20	57.0	57.0	57.0	51	39.1	0	3	90	0.00	30.070 
17:25	56.9	56.9	56.9	51	39.0	1	2	90	0.00	30.070 
17:30	56.9	56.9	56.9	51	39.0	1	2	90	0.00	30.074 
17:35	56.7	56.7	56.7	51	38.8	0	2	90	0.00	30.074 
17:40	56.6	56.6	56.6	52	39.2	0	2	90	0.00	30.074 
17:45	56.5	56.5	56.5	52	39.1	0	1	90	0.00	30.074 
17:50	56.3	56.3	56.3	53	39.4	0	2	90	0.00	30.074 
17:55	56.0	56.0	56.0	53	39.1	0	2	90	0.00	30.074 
18:00	55.9	55.9	55.9	53	39.0	0	2	90	0.00	30.080 
18:05	55.6	55.6	55.6	54	39.2	0	2	90	0.00	30.080 
18:10	55.3	55.3	55.3	55	39.4	0	1	90	0.00	30.080 
18:15	55.1	55.1	55.1	55	39.2	0	2	90	0.00	30.078 
18:20	55.0	55.0	55.0	55	39.1	0	1	90	0.00	30.078 
18:25	54.8	54.8	54.8	56	39.4	0	2	90	0.00	30.078 
18:30	54.7	54.7	54.7	57	39.8	0	2	90	0.00	30.077 
18:35	54.5	54.5	54.5	57	39.6	0	2	90	0.00	30.077 
18:40	54.4	54.4	54.4	57	39.5	0	1	90	0.00	30.077 
18:45	54.4	54.4	54.4	58	39.9	0	2	90	0.00	30.070 
18:50	54.4	54.4	54.4	58	39.9	0	2	90	0.00	30.070 
18:55	54.2	54.2	54.2	58	39.7	0	2	90	0.00	30.070 
19:00	54.2	54.2	54.2	58	39.7	1	2	90	0.00	30.075 
19:05	54.1	54.1	54.1	58	39.7	0	2	90	0.00	30.075 
19:10	53.9	53.9	53.9	59	39.9	0	1	90	0.00	30.075 
19:15	53.8	53.8	53.8	59	39.8	0	1	90	0.00	30.077 
19:20	53.6	53.6	53.6	60	40.1	0	1	90	0.00	30.077 
19:25	53.5	53.5	53.5	60	40.0	0	2	90	0.00	30.077 
19:30	53.5	53.5	53.5	59	39.5	0	3	90	0.00	30.071 
19:35	53.6	53.6	53.6	60	40.1	0	1	90	0.00	30.071 
19:40	53.6	53.6	53.6	59	39.6	1	3	90	0.00	30.071 
19:45	53.6	53.6	53.6	60	40.1	0	2	90	0.00	30.069 
19:50	53.6	53.6	53.6	60	40.1	1	3	90	0.00	30.069 
19:55	53.8	53.8	53.8	60	40.2	1	4	90	0.00	30.069 
20:00	53.8	53.8	53.8	60	40.2	1	2	90	0.00	30.066 
20:05	53.8	53.8	53.8	61	40.7	1	3	90	0.00	30.066 
20:10	53.8	53.8	53.8	61	40.7	1	3	90	0.00	30.066 
20:15	53.6	53.6	53.6	62	40.9	0	2	90	0.00	30.062 
20:20	53.6	53.6	53.6	64	41.7	0	3	90	0.00	30.062 
20:25	53.3	53.3	53.3	66	42.2	0	2	90	0.00	30.062 
20:30	53.2	53.2	53.2	68	42.9	0	1	90	0.00	30.065 
20:35	52.9	52.9	52.9	69	43.0	0	2	90	0.00	30.065 
20:40	52.8	52.8	52.8	69	42.9	0	1	90	0.00	30.065 
20:45	52.5	52.5	52.5	70	43.0	0	1	90	0.00	30.071 
20:50	52.5	52.5	52.5	72	43.7	0	1	90	0.00	30.071 
20:55	52.3	52.3	52.3	73	43.9	0	1	90	0.00	30.071 
21:00	52.2	52.2	52.2	73	43.8	0	1	90	0.00	30.075 
21:05	52.2	52.2	52.2	73	43.8	0	1	90	0.00	30.075 
21:10	52.2	52.2	52.2	73	43.8	0	1	90	0.00	30.075 
21:15	52.0	52.0	52.0	73	43.6	0	2	90	0.00	30.075 
21:20	52.0	52.0	52.0	73	43.6	0	1	90	0.00	30.075 
21:25	52.0	52.0	52.0	73	43.6	0	0	---	0.00	30.075 
21:30	52.0	52.0	52.0	73	43.6	0	1	90	0.00	30.079 
21:35	52.0	52.0	52.0	73	43.6	0	1	90	0.00	30.079 
21:40	52.0	52.0	52.0	73	43.6	0	1	90	0.00	30.079 
21:45	52.0	52.0	52.0	73	43.6	0	0	---	0.00	30.082 
21:50	52.0	52.0	52.0	73	43.6	0	0	---	0.00	30.082 
21:55	52.0	52.0	52.0	73	43.6	0	1	90	0.00	30.082 
22:00	51.9	51.9	51.9	73	43.5	0	1	90	0.00	30.080 
22:05	51.9	51.9	51.9	72	43.2	0	0	---	0.00	30.080 
22:10	51.7	51.7	51.7	73	43.3	0	0	---	0.00	30.080 
22:15	51.7	51.7	51.7	73	43.3	0	1	90	0.00	30.081 
22:20	51.6	51.6	51.6	73	43.2	0	0	---	0.00	30.081 
22:25	51.6	51.6	51.6	73	43.2	0	0	---	0.00	30.081 
22:30	51.6	51.6	51.6	73	43.2	0	0	---	0.00	30.080 
22:35	51.6	51.6	51.6	73	43.2	0	0	---	0.00	30.080 
22:40	51.6	51.6	51.6	73	43.2	0	0	---	0.00	30.080 
22:45	51.6	51.6	51.6	73	43.2	0	0	---	0.00	30.077 
22:50	51.6	51.6	51.6	73	43.2	0	1	90	0.00	30.077 
22:55	51.6	51.6	51.6	73	43.2	0	1	90	0.00	30.077 
23:00	51.6	51.6	51.6	73	43.2	0	0	---	0.00	30.079 
23:05	51.4	51.4	51.4	73	43.0	0	0	---	0.00	30.079 
23:10	51.4	51.4	51.4	73	43.0	0	1	90	0.00	30.079 
23:15	51.4	51.4	51.4	73	43.0	0	0	---	0.00	30.070 
23:20	51.4	51.4	51.4	73	43.0	0	1	90	0.00	30.070 
23:25	51.4	51.4	51.4	73	43.0	0	1	90	0.00	30.070 
23:30	51.4	51.4	51.4	73	43.0	0	1	90	0.00	30.070 
23:35	51.4	51.4	51.4	73	43.0	0	0	---	0.00	30.070 
23:40	51.4	51.4	51.4	72	42.7	0	0	---	0.00	30.070 
23:45	51.4	51.4	51.4	72	42.7	0	0	---	0.00	30.070 
23:50	51.4	51.4	51.4	72	42.7	0	0	---	0.00	30.070 
23:55	51.4	51.4	51.4	72	42.7	0	0	---	0.00	30.070 

CoCoRaHS
IN-AL-39
A2 Web Hosting
Creative Commons License
GoDaddy
search engine by freefind advanced

loaded 2018-11-22 06:42:35 • last modified 2010-11-18 10:43:29
Privacy PolicyDisclaimer
• wx.awcolley.com is powered by PmWiki v.2002016 •
• all content (unless otherwise noted) © 2018 A W Colley